This is the latest recevied weather packets stored in our database for station/object 9M2ABD-1. If no packets are shown the sender has not sent any weather packets the latest 10 day(s).
| Time | Temp. | Humidity | Pressure | Rain* | Wind** | Luminosity | Snow |
|---|---|---|---|---|---|---|---|
| 1777701577 | 31.67° C | 72% | 1008.8 hPa | - | - | - | - |
| 1777700377 | 31.67° C | 72% | 1008.9 hPa | - | - | - | - |
| 1777699177 | 31.11° C | 73% | 1009.2 hPa | - | - | - | - |
| 1777697976 | 31.11° C | 74% | 1009.8 hPa | - | - | - | - |
| 1777696776 | 31.11° C | 74% | 1010.1 hPa | - | - | - | - |
| 1777695576 | 31.11° C | 74% | 1010.5 hPa | - | - | - | - |
| 1777694376 | 30.56° C | 74% | 1010.6 hPa | - | - | - | - |
| 1777693176 | 30.56° C | 75% | 1010.9 hPa | - | - | - | - |
| 1777691976 | 30° C | 76% | 1011.1 hPa | - | - | - | - |
| 1777690776 | 30° C | 77% | 1011.2 hPa | - | - | - | - |
| 1777689575 | 30° C | 77% | 1011.2 hPa | - | - | - | - |
| 1777688375 | 29.44° C | 77% | 1011 hPa | - | - | - | - |
| 1777673976 | 28.33° C | 79% | 1008.6 hPa | - | - | - | - |
| 1777670376 | 28.33° C | 78% | 1008.3 hPa | - | - | - | - |
| 1777667976 | 28.33° C | 78% | 1008.5 hPa | - | - | - | - |
| 1777665576 | 28.33° C | 78% | 1008.8 hPa | - | - | - | - |
| 1777664376 | 28.33° C | 78% | 1009.2 hPa | - | - | - | - |
| 1777660064 | 28.33° C | 78% | 1010 hPa | - | - | - | - |
| 1777659575 | 28.33° C | 78% | 1010 hPa | - | - | - | - |
| 1777659034 | 28.89° C | 78% | 1010.2 hPa | - | - | - | - |
| 1777655975 | 28.89° C | 78% | 1010.4 hPa | - | - | - | - |
| 1777653575 | 28.89° C | 77% | 1010.9 hPa | - | - | - | - |
| 1777651175 | 28.89° C | 78% | 1011.1 hPa | - | - | - | - |
| 1777649974 | 28.89° C | 77% | 1011.2 hPa | - | - | - | - |
| 1777648774 | 28.89° C | 77% | 1011.3 hPa | - | - | - | - |
* Rain since midnight (hover to see other rain measurements)
** Current wind speed in m/s (hover to see current wind gust speed)